Time;durP1;ratioP1;P1;durP2;ratioP2;P2;SDS_P1;SDS_P2;PMS_P1;PMS_P2;Temp;Humidity;BMP_temperature;BMP_pressure;BME280_temperature;BME280_humidity;BME280_pressure;Samples;Min_cycle;Max_cycle;Signal;HPM_P1;HPM_P2
2021/08/06 00:00:00;;;;;;;2.38;1.55;;;;;;;;;;4952926;29;20059;-69
2021/08/06 00:02:26;;;;;;;2.30;1.60;;;;;;;;;;4947020;28;20389;-69
2021/08/06 00:04:52;;;;;;;3.97;1.73;;;;;;;;;;4953515;29;20389;-69
2021/08/06 00:07:18;;;;;;;1.90;1.65;;;;;;;;;;4952683;28;20030;-68
2021/08/06 00:09:44;;;;;;;4.38;1.80;;;;;;;;;;4953295;28;20039;-68
2021/08/06 00:12:13;;;;;;;1.70;1.60;;;;;;;;;;4953132;29;20508;-69
2021/08/06 00:14:39;;;;;;;3.35;1.60;;;;;;;;;;4953071;29;20052;-69
2021/08/06 00:17:05;;;;;;;5.95;1.95;;;;;;;;;;4953187;28;20031;-68
2021/08/06 00:19:31;;;;;;;2.08;1.65;;;;;;;;;;4956728;29;20094;-68
2021/08/06 00:21:57;;;;;;;5.07;1.95;;;;;;;;;;4957140;29;20437;-69
2021/08/06 00:24:23;;;;;;;3.72;2.20;;;;;;;;;;4956973;29;20034;-69
2021/08/06 00:26:51;;;;;;;2.97;1.52;;;;;;;;;;4956846;29;20035;-69
2021/08/06 00:29:18;;;;;;;5.15;1.70;;;;;;;;;;4957104;29;20027;-69
2021/08/06 00:31:44;;;;;;;3.25;1.58;;;;;;;;;;4956872;29;20472;-68
2021/08/06 00:34:13;;;;;;;1.63;1.52;;;;;;;;;;4956416;29;20031;-68
2021/08/06 00:36:39;;;;;;;1.65;1.52;;;;;;;;;;4956915;29;20027;-67
2021/08/06 00:39:05;;;;;;;3.60;1.60;;;;;;;;;;4956575;29;20023;-70
2021/08/06 00:41:31;;;;;;;3.13;1.77;;;;;;;;;;4956905;29;20035;-69
2021/08/06 00:43:57;;;;;;;3.10;1.42;;;;;;;;;;4956710;29;20023;-69
2021/08/06 00:46:23;;;;;;;2.83;1.98;;;;;;;;;;4956518;29;20078;-69
2021/08/06 00:48:49;;;;;;;3.83;2.25;;;;;;;;;;4956540;29;20055;-69
2021/08/06 00:51:15;;;;;;;5.88;2.80;;;;;;;;;;4956805;29;20513;-68
2021/08/06 00:53:41;;;;;;;4.95;2.00;;;;;;;;;;4964402;28;20031;-69
2021/08/06 00:56:08;;;;;;;2.28;1.73;;;;;;;;;;4956463;29;20106;-69
2021/08/06 00:58:34;;;;;;;2.78;1.80;;;;;;;;;;4956363;29;20078;-69
2021/08/06 01:01:03;;;;;;;1.80;1.52;;;;;;;;;;4956650;28;20042;-69
2021/08/06 01:03:50;;;;;;;2.10;1.90;;;;;;;;;;4947006;29;20547;-69
2021/08/06 01:06:22;;;;;;;1.95;1.65;;;;;;;;;;4956292;29;20048;-69
2021/08/06 01:09:11;;;;;;;1.70;1.55;;;;;;;;;;4955840;28;20069;-69
2021/08/06 01:11:39;;;;;;;3.17;1.90;;;;;;;;;;4915913;29;20048;-70
2021/08/06 01:14:10;;;;;;;1.42;1.33;;;;;;;;;;4915985;29;20127;-68
2021/08/06 01:16:36;;;;;;;2.83;1.70;;;;;;;;;;4915675;29;20098;-68
2021/08/06 01:19:16;;;;;;;3.92;1.63;;;;;;;;;;4915880;29;20028;-69
2021/08/06 01:21:44;;;;;;;2.50;1.50;;;;;;;;;;4915473;29;20079;-69
2021/08/06 01:24:14;;;;;;;1.45;1.35;;;;;;;;;;4920086;29;20551;-69
2021/08/06 01:26:42;;;;;;;2.10;1.50;;;;;;;;;;4915160;29;20470;-69
2021/08/06 01:29:09;;;;;;;1.60;1.50;;;;;;;;;;4915611;29;20079;-69
2021/08/06 01:31:35;;;;;;;5.90;2.05;;;;;;;;;;4915452;29;20033;-68
2021/08/06 01:34:01;;;;;;;1.58;1.30;;;;;;;;;;4915620;29;20047;-68
2021/08/06 01:36:27;;;;;;;2.55;1.60;;;;;;;;;;4915488;29;20067;-70
2021/08/06 01:38:53;;;;;;;3.35;1.55;;;;;;;;;;4915189;29;20441;-69
2021/08/06 01:41:19;;;;;;;2.55;1.60;;;;;;;;;;4914994;29;20585;-69
2021/08/06 01:43:51;;;;;;;2.20;1.30;;;;;;;;;;4915009;29;20047;-69
2021/08/06 01:46:22;;;;;;;1.85;1.30;;;;;;;;;;4915507;29;20037;-69
2021/08/06 01:48:52;;;;;;;3.35;1.33;;;;;;;;;;4936548;29;20171;-68
2021/08/06 01:51:20;;;;;;;1.38;1.27;;;;;;;;;;4955751;29;20097;-69
2021/08/06 01:53:48;;;;;;;1.27;1.13;;;;;;;;;;4950198;28;20037;-68
2021/08/06 01:56:20;;;;;;;3.17;1.50;;;;;;;;;;4955024;29;20039;-68
2021/08/06 01:58:48;;;;;;;1.35;1.25;;;;;;;;;;4955527;29;20034;-69
2021/08/06 02:01:14;;;;;;;1.13;1.13;;;;;;;;;;4954992;29;20477;-70
2021/08/06 02:03:40;;;;;;;1.38;1.38;;;;;;;;;;4956585;29;20023;-69
2021/08/06 02:06:07;;;;;;;1.70;1.60;;;;;;;;;;4954766;29;20470;-68
2021/08/06 02:08:35;;;;;;;1.27;1.17;;;;;;;;;;4955420;28;20048;-69
2021/08/06 02:11:03;;;;;;;2.60;1.20;;;;;;;;;;4954924;29;20027;-69
2021/08/06 02:13:29;;;;;;;2.33;1.65;;;;;;;;;;4954411;29;20031;-68
2021/08/06 02:15:56;;;;;;;1.60;1.50;;;;;;;;;;4955106;29;20102;-68
2021/08/06 02:18:22;;;;;;;2.95;1.35;;;;;;;;;;4954928;28;20102;-69
2021/08/06 02:20:59;;;;;;;3.80;1.70;;;;;;;;;;4954866;29;20042;-68
2021/08/06 02:23:25;;;;;;;4.35;2.10;;;;;;;;;;4955290;29;20112;-68
2021/08/06 02:25:57;;;;;;;2.17;1.38;;;;;;;;;;4954771;28;20030;-68
2021/08/06 02:28:24;;;;;;;1.83;1.50;;;;;;;;;;4955361;29;20024;-69
2021/08/06 02:30:51;;;;;;;1.40;1.30;;;;;;;;;;4954347;29;20119;-69
2021/08/06 02:33:17;;;;;;;2.47;1.10;;;;;;;;;;4954395;29;20106;-69
2021/08/06 02:35:43;;;;;;;0.98;0.98;;;;;;;;;;4954586;29;20549;-69
2021/08/06 02:38:20;;;;;;;1.88;1.05;;;;;;;;;;4955013;29;20077;-69
2021/08/06 02:40:46;;;;;;;2.30;1.08;;;;;;;;;;4954251;28;20027;-69
2021/08/06 02:43:12;;;;;;;1.40;1.10;;;;;;;;;;4953449;29;20030;-69
2021/08/06 02:45:41;;;;;;;1.25;1.15;;;;;;;;;;4953748;29;20429;-69
2021/08/06 02:48:07;;;;;;;2.10;1.30;;;;;;;;;;4936470;29;20077;-69
2021/08/06 02:50:33;;;;;;;3.10;1.10;;;;;;;;;;4954937;29;20390;-68
2021/08/06 02:52:59;;;;;;;5.10;1.10;;;;;;;;;;4953060;29;20023;-69
2021/08/06 02:55:27;;;;;;;2.20;1.20;;;;;;;;;;4952128;29;20035;-69
2021/08/06 02:57:53;;;;;;;1.60;1.25;;;;;;;;;;4954327;29;20040;-68
2021/08/06 03:00:19;;;;;;;1.08;1.08;;;;;;;;;;4954384;29;20027;-69
2021/08/06 03:02:45;;;;;;;1.77;1.17;;;;;;;;;;4954394;29;20011;-69
2021/08/06 03:05:11;;;;;;;2.13;1.20;;;;;;;;;;4953686;29;20055;-69
2021/08/06 03:07:37;;;;;;;1.95;1.60;;;;;;;;;;4954278;28;20039;-69
2021/08/06 03:10:04;;;;;;;1.48;1.23;;;;;;;;;;4953919;29;20034;-68
2021/08/06 03:12:30;;;;;;;5.85;1.55;;;;;;;;;;4954311;29;20031;-68
2021/08/06 03:14:56;;;;;;;4.65;1.35;;;;;;;;;;4958455;29;20031;-69
2021/08/06 03:17:22;;;;;;;1.95;1.08;;;;;;;;;;4954003;29;20038;-69
2021/08/06 03:19:50;;;;;;;3.08;1.23;;;;;;;;;;4953786;29;20536;-69
2021/08/06 03:22:16;;;;;;;1.55;1.20;;;;;;;;;;4953913;29;20118;-68
2021/08/06 03:24:42;;;;;;;5.28;1.40;;;;;;;;;;4954120;29;20167;-69
2021/08/06 03:27:08;;;;;;;1.48;1.05;;;;;;;;;;4953512;29;20046;-69
2021/08/06 03:29:34;;;;;;;2.28;1.25;;;;;;;;;;4953488;29;20385;-69
2021/08/06 03:32:00;;;;;;;1.60;1.00;;;;;;;;;;4951975;28;20035;-69
2021/08/06 03:34:26;;;;;;;1.30;1.20;;;;;;;;;;4953225;29;20031;-69
2021/08/06 03:36:55;;;;;;;3.15;1.40;;;;;;;;;;4952982;29;20067;-69
2021/08/06 03:39:21;;;;;;;2.20;1.40;;;;;;;;;;4953946;29;20493;-68
2021/08/06 03:41:48;;;;;;;3.17;1.20;;;;;;;;;;4954155;28;20121;-69
2021/08/06 03:44:14;;;;;;;2.22;1.58;;;;;;;;;;4953560;29;20029;-69
2021/08/06 03:46:42;;;;;;;1.38;1.20;;;;;;;;;;4953195;29;20054;-68
2021/08/06 03:49:10;;;;;;;2.05;1.30;;;;;;;;;;4953223;29;20069;-67
2021/08/06 03:51:36;;;;;;;1.15;1.05;;;;;;;;;;4953338;28;20160;-69
2021/08/06 03:54:02;;;;;;;3.60;1.67;;;;;;;;;;4953008;29;20019;-70
2021/08/06 03:56:28;;;;;;;4.88;1.63;;;;;;;;;;4955810;29;20070;-68
2021/08/06 03:58:57;;;;;;;1.10;1.00;;;;;;;;;;4953445;29;20036;-69
2021/08/06 04:01:23;;;;;;;3.03;1.80;;;;;;;;;;4951432;28;20057;-69
2021/08/06 04:03:49;;;;;;;2.42;1.60;;;;;;;;;;4952334;29;20024;-70
2021/08/06 04:06:15;;;;;;;2.17;1.20;;;;;;;;;;4953241;29;20019;-69
2021/08/06 04:08:41;;;;;;;2.63;1.52;;;;;;;;;;4952592;28;20376;-67
2021/08/06 04:11:07;;;;;;;8.90;2.22;;;;;;;;;;4953653;29;20118;-68
2021/08/06 04:13:33;;;;;;;4.72;1.92;;;;;;;;;;4953038;29;20039;-69
2021/08/06 04:15:59;;;;;;;3.42;1.35;;;;;;;;;;4953211;29;20074;-69
2021/08/06 04:18:25;;;;;;;2.95;1.63;;;;;;;;;;4952604;28;20038;-67
2021/08/06 04:20:52;;;;;;;3.38;1.73;;;;;;;;;;4950166;29;20047;-67
2021/08/06 04:23:18;;;;;;;3.17;1.58;;;;;;;;;;4952186;29;20031;-67
2021/08/06 04:25:44;;;;;;;2.55;1.60;;;;;;;;;;4952054;29;20031;-69
2021/08/06 04:28:10;;;;;;;2.38;1.20;;;;;;;;;;4953480;28;20030;-66
2021/08/06 04:30:36;;;;;;;3.40;1.20;;;;;;;;;;4949907;29;20081;-68
2021/08/06 04:33:02;;;;;;;3.15;1.90;;;;;;;;;;4953053;29;20027;-74
2021/08/06 04:35:31;;;;;;;2.80;1.85;;;;;;;;;;4952235;29;20035;-65
2021/08/06 04:37:58;;;;;;;4.38;1.80;;;;;;;;;;4934749;29;20421;-62
2021/08/06 04:40:24;;;;;;;2.25;1.73;;;;;;;;;;4951098;28;20062;-62
2021/08/06 04:42:50;;;;;;;2.63;2.00;;;;;;;;;;4952072;29;20035;-69
2021/08/06 04:45:16;;;;;;;4.40;1.73;;;;;;;;;;4952539;28;20126;-72
2021/08/06 04:47:46;;;;;;;4.43;1.60;;;;;;;;;;4952178;28;20041;-66
2021/08/06 04:50:13;;;;;;;4.05;1.98;;;;;;;;;;4952334;29;20086;-63
2021/08/06 04:52:40;;;;;;;10.15;5.00;;;;;;;;;;4952173;28;20035;-72
2021/08/06 04:55:06;;;;;;;9.60;2.33;;;;;;;;;;4952400;29;20030;-62
2021/08/06 04:57:32;;;;;;;5.13;1.80;;;;;;;;;;4951996;29;20031;-73
2021/08/06 04:59:58;;;;;;;4.93;1.80;;;;;;;;;;4952107;28;20508;-72
2021/08/06 05:02:24;;;;;;;5.80;2.25;;;;;;;;;;4952938;29;20489;-62
2021/08/06 05:04:50;;;;;;;6.97;2.33;;;;;;;;;;4954755;28;20501;-65
2021/08/06 05:07:17;;;;;;;3.40;1.90;;;;;;;;;;4956154;28;20481;-67
2021/08/06 05:09:44;;;;;;;4.43;2.00;;;;;;;;;;4956107;28;20031;-64
2021/08/06 05:12:10;;;;;;;2.92;1.50;;;;;;;;;;4956335;29;20047;-72
2021/08/06 05:14:36;;;;;;;3.03;2.00;;;;;;;;;;4955988;29;20027;-63
2021/08/06 05:17:02;;;;;;;8.25;2.53;;;;;;;;;;4961225;28;20114;-64
2021/08/06 05:19:28;;;;;;;7.13;2.75;;;;;;;;;;4955918;29;20190;-63
2021/08/06 05:21:54;;;;;;;6.82;3.03;;;;;;;;;;4956204;29;20146;-64
2021/08/06 05:24:20;;;;;;;5.40;2.45;;;;;;;;;;4956581;29;20106;-73
2021/08/06 05:26:49;;;;;;;5.90;2.35;;;;;;;;;;4954306;28;20035;-67
2021/08/06 05:29:15;;;;;;;7.43;2.28;;;;;;;;;;4955875;29;20493;-69
2021/08/06 05:31:41;;;;;;;5.05;2.00;;;;;;;;;;4956190;29;20028;-72
2021/08/06 05:34:07;;;;;;;5.75;1.90;;;;;;;;;;4955930;29;20051;-62
2021/08/06 05:36:33;;;;;;;5.75;1.90;;;;;;;;;;4954525;29;20070;-69
2021/08/06 05:38:59;;;;;;;3.53;1.70;;;;;;;;;;4955955;29;20035;-65
2021/08/06 05:41:28;;;;;;;4.70;2.10;;;;;;;;;;4955834;29;20102;-66
2021/08/06 05:43:54;;;;;;;4.43;2.10;;;;;;;;;;4956067;29;20076;-64
2021/08/06 05:46:20;;;;;;;4.03;1.63;;;;;;;;;;4955167;29;20019;-67
2021/08/06 05:48:46;;;;;;;5.10;1.55;;;;;;;;;;4955413;29;20110;-68
2021/08/06 05:51:12;;;;;;;1.85;1.50;;;;;;;;;;4955464;29;20036;-69
2021/08/06 05:53:38;;;;;;;4.45;1.88;;;;;;;;;;4955088;29;20378;-69
2021/08/06 05:56:04;;;;;;;5.07;1.48;;;;;;;;;;4954955;29;20489;-66
2021/08/06 05:58:30;;;;;;;3.75;1.17;;;;;;;;;;4955739;29;20031;-67
2021/08/06 06:00:58;;;;;;;1.92;1.38;;;;;;;;;;4954929;29;20081;-74
2021/08/06 06:03:24;;;;;;;1.58;1.20;;;;;;;;;;4937291;29;20449;-75
2021/08/06 06:05:53;;;;;;;4.63;1.48;;;;;;;;;;4936947;29;20051;-73
2021/08/06 06:08:19;;;;;;;4.30;1.52;;;;;;;;;;4959174;28;20563;-80
2021/08/06 06:10:45;;;;;;;1.42;1.13;;;;;;;;;;4953752;29;20513;-81
2021/08/06 06:13:36;;;;;;;2.55;1.00;;;;;;;;;;4954644;28;20151;-80
2021/08/06 06:16:02;;;;;;;3.60;1.58;;;;;;;;;;4952146;28;20122;-71
2021/08/06 06:18:28;;;;;;;5.13;1.60;;;;;;;;;;4954684;28;20094;-68
2021/08/06 06:20:55;;;;;;;2.90;1.40;;;;;;;;;;4954346;28;20089;-70
2021/08/06 06:23:21;;;;;;;1.27;1.08;;;;;;;;;;4954572;28;20082;-73
2021/08/06 06:25:49;;;;;;;1.73;1.10;;;;;;;;;;4954171;28;20103;-67
2021/08/06 06:28:15;;;;;;;2.60;1.02;;;;;;;;;;4954832;28;20038;-68
2021/08/06 06:30:42;;;;;;;2.28;1.20;;;;;;;;;;4954300;28;20015;-67
2021/08/06 06:33:10;;;;;;;1.80;1.02;;;;;;;;;;4954275;28;20041;-83
2021/08/06 06:35:36;;;;;;;2.63;0.85;;;;;;;;;;4954352;28;20039;-69
2021/08/06 06:38:05;;;;;;;3.85;1.15;;;;;;;;;;4953553;28;20862;-70
2021/08/06 06:40:31;;;;;;;1.65;1.17;;;;;;;;;;4952366;29;20586;-71
2021/08/06 06:42:57;;;;;;;2.90;1.65;;;;;;;;;;4953707;28;20465;-66
2021/08/06 06:45:23;;;;;;;2.05;1.13;;;;;;;;;;4953919;28;20499;-78
2021/08/06 06:47:50;;;;;;;3.80;1.27;;;;;;;;;;4953692;28;20457;-81
2021/08/06 06:50:18;;;;;;;4.80;2.15;;;;;;;;;;4953457;29;20441;-74
2021/08/06 06:52:47;;;;;;;2.10;1.20;;;;;;;;;;4953244;28;20087;-71
2021/08/06 06:55:16;;;;;;;1.92;1.10;;;;;;;;;;4953715;28;20442;-68
2021/08/06 06:57:42;;;;;;;3.42;1.70;;;;;;;;;;4953485;28;20027;-72
2021/08/06 07:00:09;;;;;;;3.00;1.90;;;;;;;;;;4960185;28;20027;-74
2021/08/06 07:02:35;;;;;;;3.40;1.40;;;;;;;;;;4953137;29;20063;-83
2021/08/06 07:05:01;;;;;;;5.18;1.50;;;;;;;;;;4954208;28;20035;-77
2021/08/06 07:07:27;;;;;;;1.30;1.20;;;;;;;;;;4949450;28;20410;-76
2021/08/06 07:09:53;;;;;;;2.22;1.70;;;;;;;;;;4952683;28;20038;-64
2021/08/06 07:12:19;;;;;;;2.50;1.70;;;;;;;;;;4954042;29;20019;-67
2021/08/06 07:14:45;;;;;;;4.47;1.73;;;;;;;;;;4954462;29;20078;-67
2021/08/06 07:17:12;;;;;;;2.38;1.50;;;;;;;;;;4955013;28;20039;-79
2021/08/06 07:19:40;;;;;;;1.65;1.30;;;;;;;;;;4953516;29;20125;-86
2021/08/06 07:22:06;;;;;;;4.80;1.50;;;;;;;;;;4953307;29;20027;-86
2021/08/06 07:24:32;;;;;;;2.63;1.25;;;;;;;;;;4952972;29;20477;-63
2021/08/06 07:26:58;;;;;;;4.82;1.63;;;;;;;;;;4952970;28;20054;-68
2021/08/06 07:29:25;;;;;;;1.58;1.30;;;;;;;;;;4952711;29;20099;-62
2021/08/06 07:31:51;;;;;;;5.80;1.48;;;;;;;;;;4952763;29;20050;-81
2021/08/06 07:34:20;;;;;;;3.80;1.50;;;;;;;;;;4953313;29;20030;-84
2021/08/06 07:36:46;;;;;;;3.33;1.60;;;;;;;;;;4952830;29;20564;-77
2021/08/06 07:39:15;;;;;;;1.85;1.45;;;;;;;;;;4953123;29;20492;-67
2021/08/06 07:41:43;;;;;;;4.00;1.65;;;;;;;;;;4953413;29;20135;-73
2021/08/06 07:44:09;;;;;;;2.90;1.48;;;;;;;;;;4953333;29;20045;-74
2021/08/06 07:46:42;;;;;;;1.98;1.30;;;;;;;;;;4952425;29;20038;-80
2021/08/06 07:49:08;;;;;;;2.50;1.60;;;;;;;;;;4932137;29;20503;-76
2021/08/06 07:51:38;;;;;;;1.73;1.52;;;;;;;;;;4936174;29;20127;-85
2021/08/06 07:54:11;;;;;;;1.52;1.42;;;;;;;;;;4952571;29;20019;-67
2021/08/06 07:56:37;;;;;;;2.85;1.70;;;;;;;;;;4935112;29;20042;-65
2021/08/06 07:59:11;;;;;;;2.20;1.25;;;;;;;;;;4952316;29;20078;-68
2021/08/06 08:01:37;;;;;;;1.35;1.15;;;;;;;;;;4951582;29;20047;-68
2021/08/06 08:04:03;;;;;;;1.58;1.10;;;;;;;;;;4957027;28;20027;-68
2021/08/06 08:06:29;;;;;;;2.00;1.20;;;;;;;;;;4954348;28;20075;-67
2021/08/06 08:08:55;;;;;;;2.17;1.52;;;;;;;;;;4953092;28;20085;-67
2021/08/06 08:11:22;;;;;;;2.85;1.30;;;;;;;;;;4953030;29;20023;-62
2021/08/06 08:13:48;;;;;;;2.53;1.50;;;;;;;;;;4953370;29;20036;-69
2021/08/06 08:16:14;;;;;;;1.52;1.23;;;;;;;;;;4952481;29;20493;-62
2021/08/06 08:18:40;;;;;;;2.13;1.13;;;;;;;;;;4953260;29;20110;-69
2021/08/06 08:21:06;;;;;;;1.60;1.48;;;;;;;;;;4953178;29;20019;-64
2021/08/06 08:23:32;;;;;;;3.72;1.40;;;;;;;;;;4953176;29;20517;-69
2021/08/06 08:25:58;;;;;;;2.38;1.10;;;;;;;;;;4952970;29;20421;-69
2021/08/06 08:28:25;;;;;;;1.70;1.60;;;;;;;;;;4952923;29;20379;-69
2021/08/06 08:30:51;;;;;;;4.10;1.70;;;;;;;;;;4952690;29;20031;-65
2021/08/06 08:33:18;;;;;;;3.55;1.35;;;;;;;;;;4953297;29;20020;-71
2021/08/06 08:35:44;;;;;;;1.70;1.20;;;;;;;;;;4952630;29;20134;-65
2021/08/06 08:38:11;;;;;;;2.30;1.60;;;;;;;;;;4952592;28;20109;-70
2021/08/06 08:40:38;;;;;;;1.48;1.38;;;;;;;;;;4956753;28;20035;-70
2021/08/06 08:43:04;;;;;;;2.47;1.08;;;;;;;;;;4956693;29;20032;-70
2021/08/06 08:45:30;;;;;;;3.33;1.33;;;;;;;;;;4955910;29;20158;-64
2021/08/06 08:47:57;;;;;;;2.45;1.27;;;;;;;;;;4952855;29;20042;-71
2021/08/06 08:50:24;;;;;;;5.20;1.13;;;;;;;;;;4956565;29;20123;-65
2021/08/06 08:52:50;;;;;;;4.63;1.70;;;;;;;;;;4956346;29;20485;-67
2021/08/06 08:55:16;;;;;;;1.40;1.20;;;;;;;;;;4956389;29;20029;-71
2021/08/06 08:57:42;;;;;;;2.45;1.30;;;;;;;;;;4956397;29;20035;-67
2021/08/06 09:00:10;;;;;;;1.33;1.23;;;;;;;;;;4956059;29;20434;-71
2021/08/06 09:02:39;;;;;;;4.22;1.88;;;;;;;;;;4956478;29;20058;-65
2021/08/06 09:05:12;;;;;;;2.92;1.50;;;;;;;;;;4955906;29;20019;-67
2021/08/06 09:07:38;;;;;;;2.37;1.53;;;;;;;;;;4955463;28;20406;-66
2021/08/06 09:10:13;;;;;;;2.10;1.38;;;;;;;;;;4956484;29;20443;-68
2021/08/06 09:12:46;;;;;;;2.40;1.48;;;;;;;;;;4956206;29;20107;-65
2021/08/06 09:15:13;;;;;;;3.03;1.65;;;;;;;;;;4956294;29;20027;-67
2021/08/06 09:17:39;;;;;;;2.65;1.70;;;;;;;;;;4956381;29;20035;-71
2021/08/06 09:20:09;;;;;;;2.50;1.63;;;;;;;;;;4956519;29;20035;-68
2021/08/06 09:22:36;;;;;;;2.55;1.33;;;;;;;;;;4956021;29;20121;-70
2021/08/06 09:25:02;;;;;;;2.92;1.40;;;;;;;;;;4956164;29;20032;-71
2021/08/06 09:27:29;;;;;;;2.05;1.50;;;;;;;;;;4955412;29;20500;-67
2021/08/06 09:29:57;;;;;;;1.48;1.35;;;;;;;;;;4955848;29;20031;-69
2021/08/06 09:32:24;;;;;;;2.65;1.65;;;;;;;;;;4956223;29;20051;-71
2021/08/06 09:34:50;;;;;;;2.63;1.85;;;;;;;;;;4955739;29;20023;-66
2021/08/06 09:37:23;;;;;;;2.50;1.95;;;;;;;;;;4955451;28;20396;-68
2021/08/06 09:39:49;;;;;;;6.30;2.83;;;;;;;;;;4955852;29;20618;-71
2021/08/06 09:42:15;;;;;;;5.28;3.00;;;;;;;;;;4955741;29;20122;-71
2021/08/06 09:44:42;;;;;;;3.33;2.50;;;;;;;;;;4954996;29;20027;-65
2021/08/06 09:47:18;;;;;;;4.25;2.67;;;;;;;;;;4955797;29;20031;-71
2021/08/06 09:49:48;;;;;;;3.80;2.40;;;;;;;;;;4955352;28;20024;-68
2021/08/06 09:52:14;;;;;;;3.25;2.03;;;;;;;;;;4954332;29;20381;-69
2021/08/06 09:54:40;;;;;;;1.85;1.75;;;;;;;;;;4955523;29;20034;-70
2021/08/06 09:57:12;;;;;;;2.47;1.85;;;;;;;;;;4955288;29;20508;-70
2021/08/06 09:59:39;;;;;;;3.22;2.10;;;;;;;;;;4954537;29;20028;-69
2021/08/06 10:02:10;;;;;;;2.28;1.77;;;;;;;;;;4955615;29;20094;-65
2021/08/06 10:04:37;;;;;;;2.40;1.85;;;;;;;;;;4955063;29;20066;-69
2021/08/06 10:07:03;;;;;;;2.90;1.95;;;;;;;;;;4955161;29;20028;-69
2021/08/06 10:09:29;;;;;;;4.00;2.15;;;;;;;;;;4955003;28;20390;-65
2021/08/06 10:11:55;;;;;;;4.55;2.40;;;;;;;;;;4955117;29;20019;-71
2021/08/06 10:14:21;;;;;;;3.42;1.80;;;;;;;;;;4955237;29;20027;-70
2021/08/06 10:16:47;;;;;;;5.80;1.90;;;;;;;;;;4954619;29;20047;-69
2021/08/06 10:19:14;;;;;;;3.55;1.92;;;;;;;;;;4955036;29;20024;-67
2021/08/06 10:21:41;;;;;;;3.72;1.83;;;;;;;;;;4954411;29;20035;-66
2021/08/06 10:24:08;;;;;;;4.25;1.98;;;;;;;;;;4950979;29;20023;-68
2021/08/06 10:26:34;;;;;;;3.92;1.92;;;;;;;;;;4954275;29;20033;-70
2021/08/06 10:29:00;;;;;;;11.43;2.28;;;;;;;;;;4955329;29;20338;-71
2021/08/06 10:31:27;;;;;;;3.42;2.13;;;;;;;;;;4951071;29;20034;-71
2021/08/06 10:34:04;;;;;;;5.00;2.00;;;;;;;;;;4954773;29;20023;-71
2021/08/06 10:36:42;;;;;;;2.35;1.90;;;;;;;;;;4954051;29;20144;-71
2021/08/06 10:39:27;;;;;;;2.13;2.00;;;;;;;;;;4955161;29;20059;-71
2021/08/06 10:41:53;;;;;;;2.05;1.88;;;;;;;;;;4954644;29;20817;-71
2021/08/06 10:44:19;;;;;;;2.10;1.90;;;;;;;;;;4954756;29;20114;-68
2021/08/06 10:46:58;;;;;;;4.07;2.00;;;;;;;;;;4953853;29;20398;-67
2021/08/06 10:49:25;;;;;;;5.47;2.30;;;;;;;;;;4955130;29;20058;-71
2021/08/06 10:52:11;;;;;;;3.85;2.10;;;;;;;;;;4953775;29;20031;-67
2021/08/06 10:54:38;;;;;;;1.88;1.65;;;;;;;;;;4954105;29;20027;-65
2021/08/06 10:57:13;;;;;;;2.83;2.10;;;;;;;;;;4954038;29;20032;-71
2021/08/06 10:59:39;;;;;;;4.78;2.00;;;;;;;;;;4953206;29;20023;-65
2021/08/06 11:02:06;;;;;;;2.40;2.20;;;;;;;;;;4954166;28;20035;-70
2021/08/06 11:04:32;;;;;;;2.35;2.15;;;;;;;;;;4953487;29;20027;-71
2021/08/06 11:07:02;;;;;;;3.83;2.00;;;;;;;;;;4953898;29;20110;-63
2021/08/06 11:09:33;;;;;;;10.35;2.25;;;;;;;;;;4953588;28;20043;-64
2021/08/06 11:12:03;;;;;;;3.33;2.00;;;;;;;;;;4953958;29;20051;-66
2021/08/06 11:14:32;;;;;;;2.65;1.92;;;;;;;;;;4953718;29;20070;-66
2021/08/06 11:16:58;;;;;;;3.67;1.90;;;;;;;;;;4953759;29;20081;-70
2021/08/06 11:19:28;;;;;;;2.45;2.10;;;;;;;;;;4953990;29;20028;-65
2021/08/06 11:21:54;;;;;;;3.15;2.15;;;;;;;;;;4953296;29;20043;-66
2021/08/06 11:24:20;;;;;;;5.07;2.00;;;;;;;;;;4954243;29;20019;-71
2021/08/06 11:26:47;;;;;;;3.60;2.50;;;;;;;;;;4953608;29;20042;-66
2021/08/06 11:29:14;;;;;;;2.75;2.15;;;;;;;;;;4953177;29;20023;-67
2021/08/06 11:31:40;;;;;;;3.20;2.00;;;;;;;;;;4953740;29;20027;-71
2021/08/06 11:34:07;;;;;;;4.53;1.85;;;;;;;;;;4953723;29;20024;-70
2021/08/06 11:36:34;;;;;;;3.78;2.20;;;;;;;;;;4947974;29;20482;-67
2021/08/06 11:39:14;;;;;;;2.28;2.00;;;;;;;;;;4953653;29;20027;-70
2021/08/06 11:41:47;;;;;;;3.15;2.00;;;;;;;;;;4953961;29;20055;-71
2021/08/06 11:44:13;;;;;;;2.10;1.90;;;;;;;;;;4953317;29;20027;-65
2021/08/06 11:46:52;;;;;;;2.92;1.83;;;;;;;;;;4953242;29;20024;-70
2021/08/06 11:49:19;;;;;;;2.65;2.08;;;;;;;;;;4953731;29;20203;-70
2021/08/06 11:51:49;;;;;;;3.72;2.00;;;;;;;;;;4953569;29;20035;-65
2021/08/06 11:54:15;;;;;;;2.72;2.10;;;;;;;;;;4953460;29;20065;-67
2021/08/06 11:56:41;;;;;;;2.20;2.00;;;;;;;;;;4952509;29;20114;-66
2021/08/06 11:59:08;;;;;;;2.45;2.10;;;;;;;;;;4953081;29;20097;-70
2021/08/06 12:01:34;;;;;;;5.93;2.28;;;;;;;;;;4949899;29;20125;-70
2021/08/06 12:04:00;;;;;;;2.10;1.90;;;;;;;;;;4953016;29;20102;-66
2021/08/06 12:06:27;;;;;;;2.30;2.03;;;;;;;;;;4952971;29;20030;-70
2021/08/06 12:08:54;;;;;;;3.25;2.17;;;;;;;;;;4953134;28;20094;-71
2021/08/06 12:11:23;;;;;;;2.75;1.98;;;;;;;;;;4953277;29;20042;-70
2021/08/06 12:13:52;;;;;;;4.80;2.30;;;;;;;;;;4952443;29;20490;-70
2021/08/06 12:16:21;;;;;;;3.50;2.30;;;;;;;;;;4952855;29;20047;-66
2021/08/06 12:18:51;;;;;;;2.30;1.95;;;;;;;;;;4953233;29;20433;-68
2021/08/06 12:21:19;;;;;;;2.55;2.10;;;;;;;;;;4953208;29;20590;-70
2021/08/06 12:24:05;;;;;;;4.25;2.30;;;;;;;;;;4953297;29;20154;-68
2021/08/06 12:26:31;;;;;;;2.72;2.10;;;;;;;;;;4942638;29;20040;-68
2021/08/06 12:29:12;;;;;;;2.20;2.00;;;;;;;;;;4953376;29;20178;-64
2021/08/06 12:31:52;;;;;;;4.50;2.00;;;;;;;;;;4953351;29;20028;-70
2021/08/06 12:34:42;;;;;;;3.65;2.20;;;;;;;;;;4935393;29;20044;-69
2021/08/06 12:37:09;;;;;;;3.17;2.00;;;;;;;;;;4893553;29;20059;-69
2021/08/06 12:39:37;;;;;;;5.18;2.30;;;;;;;;;;4890295;29;20028;-67
2021/08/06 12:42:11;;;;;;;2.78;2.30;;;;;;;;;;4893586;29;20561;-69
2021/08/06 12:44:37;;;;;;;2.78;2.30;;;;;;;;;;4893370;29;20033;-68
2021/08/06 12:47:03;;;;;;;3.20;2.00;;;;;;;;;;4893239;29;20040;-64
2021/08/06 12:49:33;;;;;;;2.67;2.05;;;;;;;;;;4893630;29;20036;-67
2021/08/06 12:52:26;;;;;;;2.45;1.95;;;;;;;;;;4893986;29;20048;-69
2021/08/06 12:54:55;;;;;;;3.55;2.10;;;;;;;;;;4893707;29;20049;-65
2021/08/06 12:57:39;;;;;;;3.40;2.13;;;;;;;;;;4893178;29;20101;-70
2021/08/06 13:00:12;;;;;;;3.40;1.83;;;;;;;;;;4893413;29;20029;-65
2021/08/06 13:02:38;;;;;;;2.17;1.98;;;;;;;;;;4893441;29;20033;-65
2021/08/06 13:05:08;;;;;;;2.72;2.00;;;;;;;;;;4901834;29;20041;-70
2021/08/06 13:07:34;;;;;;;2.20;2.00;;;;;;;;;;4892939;29;20048;-65
2021/08/06 13:10:01;;;;;;;4.97;2.10;;;;;;;;;;4893879;29;20111;-69
2021/08/06 13:12:27;;;;;;;6.40;2.22;;;;;;;;;;4893576;29;20408;-66
2021/08/06 13:14:53;;;;;;;3.00;2.10;;;;;;;;;;4941461;29;20039;-70
2021/08/06 13:17:20;;;;;;;3.63;2.20;;;;;;;;;;4952309;29;20035;-64
2021/08/06 13:19:47;;;;;;;2.60;1.90;;;;;;;;;;4952656;29;20022;-71
2021/08/06 13:22:14;;;;;;;2.97;2.15;;;;;;;;;;4951682;29;20027;-64
2021/08/06 13:24:42;;;;;;;11.27;5.90;;;;;;;;;;4951233;28;20066;-67
2021/08/06 13:27:08;;;;;;;12.63;5.70;;;;;;;;;;4955453;29;20049;-69
2021/08/06 13:29:34;;;;;;;5.57;3.33;;;;;;;;;;4959704;28;20086;-70
2021/08/06 13:32:01;;;;;;;2.60;2.17;;;;;;;;;;4955544;29;20046;-71
2021/08/06 13:34:27;;;;;;;4.80;2.40;;;;;;;;;;4953926;29;20031;-79
2021/08/06 13:36:54;;;;;;;4.20;2.50;;;;;;;;;;4952951;28;20039;-81
2021/08/06 13:39:24;;;;;;;2.28;1.98;;;;;;;;;;4955380;29;20023;-73
2021/08/06 13:41:52;;;;;;;1.95;1.80;;;;;;;;;;4952405;28;20062;-81
2021/08/06 13:44:21;;;;;;;3.30;2.20;;;;;;;;;;4955776;29;20045;-68
2021/08/06 13:46:47;;;;;;;5.32;2.10;;;;;;;;;;4955018;29;20043;-83
2021/08/06 13:49:14;;;;;;;2.30;2.10;;;;;;;;;;4955616;29;20030;-71
2021/08/06 13:51:40;;;;;;;2.72;2.00;;;;;;;;;;4954124;29;20035;-63
2021/08/06 13:54:06;;;;;;;5.30;2.15;;;;;;;;;;4955233;29;20028;-63
2021/08/06 13:56:34;;;;;;;4.53;2.53;;;;;;;;;;4954628;29;20123;-68
2021/08/06 13:59:03;;;;;;;3.42;2.25;;;;;;;;;;4955131;28;20618;-68
2021/08/06 14:01:32;;;;;;;2.80;1.85;;;;;;;;;;4956033;28;20512;-73
2021/08/06 14:03:59;;;;;;;6.07;3.17;;;;;;;;;;4953856;28;20035;-63
2021/08/06 14:06:25;;;;;;;3.80;2.00;;;;;;;;;;4955077;29;20426;-67
2021/08/06 14:08:51;;;;;;;3.08;2.10;;;;;;;;;;4953530;28;20049;-65
2021/08/06 14:11:17;;;;;;;2.95;2.10;;;;;;;;;;4955604;29;20050;-63
2021/08/06 14:13:43;;;;;;;4.43;2.17;;;;;;;;;;4955018;29;20027;-64
2021/08/06 14:16:09;;;;;;;2.63;2.03;;;;;;;;;;4949545;28;20041;-65
2021/08/06 14:18:35;;;;;;;2.50;1.88;;;;;;;;;;4954831;29;20023;-68
2021/08/06 14:21:02;;;;;;;3.20;2.10;;;;;;;;;;4954807;29;20056;-68
2021/08/06 14:23:29;;;;;;;2.97;2.10;;;;;;;;;;4955092;29;20024;-70
2021/08/06 14:25:55;;;;;;;5.18;2.40;;;;;;;;;;4954600;29;20130;-71
2021/08/06 14:28:24;;;;;;;2.25;1.85;;;;;;;;;;4955212;29;20151;-70
2021/08/06 14:30:50;;;;;;;2.47;1.80;;;;;;;;;;4953506;28;20034;-69
2021/08/06 14:33:16;;;;;;;3.00;1.77;;;;;;;;;;4954894;29;20501;-71
2021/08/06 14:35:44;;;;;;;1.98;1.80;;;;;;;;;;4954712;29;20083;-68
2021/08/06 14:38:10;;;;;;;1.80;1.70;;;;;;;;;;4951713;29;20072;-63
2021/08/06 14:40:36;;;;;;;2.25;1.80;;;;;;;;;;4954988;29;20031;-69
2021/08/06 14:43:02;;;;;;;1.83;1.73;;;;;;;;;;4954226;28;20047;-71
2021/08/06 14:45:28;;;;;;;3.58;1.80;;;;;;;;;;4954381;29;20106;-69